Time;durP1;ratioP1;P1;durP2;ratioP2;P2;SDS_P1;SDS_P2;PMS_P1;PMS_P2;Temp;Humidity;BMP_temperature;BMP_pressure;BME280_temperature;BME280_humidity;BME280_pressure;Samples;Min_cycle;Max_cycle;Signal;HPM_P1;HPM_P2
2023/08/07 00:00:51;;;;;;;7.43;6.80;;;16.50;99.90;;;;;;5035867;28;20461;-69
2023/08/07 00:03:19;;;;;;;7.00;6.40;;;16.50;99.90;;;;;;5035260;28;20455;-69
2023/08/07 00:05:48;;;;;;;7.60;6.73;;;16.50;99.90;;;;;;5033906;28;20453;-69
2023/08/07 00:08:16;;;;;;;7.57;6.80;;;16.50;99.90;;;;;;5035225;28;20414;-69
2023/08/07 00:10:44;;;;;;;7.20;6.50;;;16.40;99.90;;;;;;5035258;28;20471;-69
2023/08/07 00:13:12;;;;;;;6.60;6.10;;;16.40;99.90;;;;;;5035276;28;20864;-68
2023/08/07 00:15:41;;;;;;;9.00;7.00;;;16.40;99.90;;;;;;5035029;28;20501;-69
2023/08/07 00:18:09;;;;;;;7.80;7.10;;;16.40;99.90;;;;;;5035586;28;20974;-69
2023/08/07 00:20:38;;;;;;;8.50;7.00;;;16.40;99.90;;;;;;5034926;28;20455;-69
2023/08/07 00:23:06;;;;;;;7.00;6.10;;;16.30;99.90;;;;;;5034907;28;20499;-69
2023/08/07 00:25:34;;;;;;;7.97;7.17;;;16.30;99.90;;;;;;5035186;28;20508;-69
2023/08/07 00:28:02;;;;;;;8.27;7.47;;;16.30;99.90;;;;;;5034832;28;20477;-69
2023/08/07 00:30:30;;;;;;;8.20;7.40;;;16.20;99.90;;;;;;5033540;28;20481;-69
2023/08/07 00:32:59;;;;;;;10.27;7.30;;;16.20;99.90;;;;;;5033473;28;20499;-69
2023/08/07 00:35:28;;;;;;;8.73;7.70;;;16.20;99.90;;;;;;5033424;28;20450;-68
2023/08/07 00:37:56;;;;;;;9.10;7.90;;;16.10;99.90;;;;;;5033386;28;20547;-69
2023/08/07 00:40:24;;;;;;;8.90;8.10;;;16.10;99.90;;;;;;5033316;28;20550;-69
2023/08/07 00:42:52;;;;;;;8.70;7.90;;;16.10;99.90;;;;;;5034819;28;20542;-69
2023/08/07 00:45:21;;;;;;;7.97;7.37;;;16.10;99.90;;;;;;5034595;28;20526;-69
2023/08/07 00:47:49;;;;;;;10.20;8.17;;;16.10;99.90;;;;;;5034391;28;20467;-69
2023/08/07 00:50:19;;;;;;;9.10;8.30;;;16.00;99.90;;;;;;5034508;28;20439;-69
2023/08/07 00:52:49;;;;;;;16.83;8.60;;;16.00;99.90;;;;;;5033041;28;20888;-69
2023/08/07 00:55:18;;;;;;;13.10;8.63;;;16.00;99.90;;;;;;5034285;28;20936;-69
2023/08/07 00:57:46;;;;;;;9.57;8.50;;;16.00;99.90;;;;;;5033018;28;20432;-69
2023/08/07 01:00:16;;;;;;;9.63;8.57;;;16.00;99.90;;;;;;5034322;28;20441;-68
2023/08/07 01:02:44;;;;;;;10.80;8.70;;;16.00;99.90;;;;;;5032900;28;20499;-68
2023/08/07 01:05:12;;;;;;;10.30;9.10;;;16.00;99.90;;;;;;5033914;28;20799;-69
2023/08/07 01:07:42;;;;;;;15.27;8.47;;;16.00;99.90;;;;;;5034198;28;20874;-69
2023/08/07 01:10:10;;;;;;;9.53;8.63;;;15.90;99.90;;;;;;5034344;28;20470;-69
2023/08/07 01:12:49;;;;;;;9.20;8.40;;;15.90;99.90;;;;;;5033817;28;20449;-68
2023/08/07 01:15:23;;;;;;;10.30;9.40;;;15.90;99.90;;;;;;5034064;28;20912;-68
2023/08/07 01:17:53;;;;;;;9.77;8.87;;;15.90;99.90;;;;;;5032730;28;20442;-68
2023/08/07 01:20:22;;;;;;;9.67;8.77;;;15.90;99.90;;;;;;5032706;28;20470;-69
2023/08/07 01:22:52;;;;;;;9.07;8.13;;;15.90;99.90;;;;;;5032499;28;20471;-69
2023/08/07 01:25:20;;;;;;;10.17;9.37;;;15.90;99.90;;;;;;5033770;28;20593;-69
2023/08/07 01:27:56;;;;;;;9.67;8.60;;;15.80;99.90;;;;;;5032402;28;20471;-68
2023/08/07 01:30:31;;;;;;;9.50;8.60;;;15.80;99.90;;;;;;5034104;28;20425;-68
2023/08/07 01:33:08;;;;;;;8.80;8.10;;;15.80;99.90;;;;;;5032429;28;20517;-69
2023/08/07 01:35:42;;;;;;;9.73;8.70;;;15.80;99.90;;;;;;5033691;28;20796;-69
2023/08/07 01:38:12;;;;;;;9.70;8.70;;;15.80;99.90;;;;;;5032437;28;20439;-68
2023/08/07 01:40:42;;;;;;;9.50;8.50;;;15.80;99.90;;;;;;5034105;28;20819;-68
2023/08/07 01:43:11;;;;;;;9.57;8.77;;;15.70;99.90;;;;;;5033519;28;20558;-68
2023/08/07 01:45:39;;;;;;;9.00;8.20;;;15.70;99.90;;;;;;5032235;28;21043;-68
2023/08/07 01:48:08;;;;;;;9.83;8.70;;;15.70;99.90;;;;;;5033618;28;20574;-68
2023/08/07 01:50:37;;;;;;;9.37;8.53;;;15.70;99.90;;;;;;5032123;28;20451;-68
2023/08/07 01:53:05;;;;;;;10.83;9.43;;;15.70;99.90;;;;;;5032078;28;20574;-69
2023/08/07 01:55:34;;;;;;;9.80;8.60;;;15.70;99.90;;;;;;5032044;28;20447;-68
2023/08/07 01:58:03;;;;;;;10.57;9.50;;;15.70;99.90;;;;;;5032139;28;20447;-69
2023/08/07 02:00:32;;;;;;;10.47;9.30;;;15.70;99.90;;;;;;5032046;28;20826;-68
2023/08/07 02:03:00;;;;;;;10.67;9.57;;;15.60;99.90;;;;;;5033654;28;21006;-68
2023/08/07 02:05:29;;;;;;;10.80;9.80;;;15.60;99.90;;;;;;5031998;28;20455;-68
2023/08/07 02:07:57;;;;;;;10.70;9.70;;;15.60;99.90;;;;;;5031917;28;20505;-68
2023/08/07 02:10:25;;;;;;;9.77;8.83;;;15.60;99.90;;;;;;5032220;28;20454;-68
2023/08/07 02:12:55;;;;;;;11.17;10.00;;;15.60;99.90;;;;;;5031759;28;20915;-69
2023/08/07 02:15:23;;;;;;;10.07;9.23;;;15.60;99.90;;;;;;5033811;28;20486;-68
2023/08/07 02:17:51;;;;;;;10.63;9.63;;;15.60;99.90;;;;;;5034717;28;20443;-68
2023/08/07 02:20:20;;;;;;;10.30;9.30;;;15.50;99.90;;;;;;5035950;28;20918;-68
2023/08/07 02:22:48;;;;;;;11.20;10.10;;;15.50;99.90;;;;;;5035786;28;20972;-68
2023/08/07 02:25:16;;;;;;;11.60;10.60;;;15.50;99.90;;;;;;5037117;28;20437;-68
2023/08/07 02:27:44;;;;;;;11.03;9.93;;;15.50;99.90;;;;;;5035732;28;20987;-68
2023/08/07 02:30:14;;;;;;;10.90;10.00;;;15.50;99.90;;;;;;5036895;28;20439;-68
2023/08/07 02:32:44;;;;;;;11.20;10.10;;;15.50;99.90;;;;;;5036497;28;20540;-68
2023/08/07 02:35:12;;;;;;;11.67;10.50;;;15.50;99.90;;;;;;5036944;28;20950;-68
2023/08/07 02:37:40;;;;;;;12.00;10.90;;;15.50;99.90;;;;;;5037481;28;20443;-68
2023/08/07 02:40:10;;;;;;;12.33;11.13;;;15.50;99.90;;;;;;5037141;28;20922;-68
2023/08/07 02:42:38;;;;;;;12.73;11.53;;;15.50;99.90;;;;;;5035527;28;20478;-68
2023/08/07 02:45:08;;;;;;;12.83;11.53;;;15.50;99.90;;;;;;5037080;28;20466;-68
2023/08/07 02:47:37;;;;;;;11.80;10.70;;;15.50;99.90;;;;;;5035459;28;20470;-68
2023/08/07 02:50:06;;;;;;;11.70;10.70;;;15.50;99.90;;;;;;5035453;28;20413;-68
2023/08/07 02:52:34;;;;;;;11.90;10.73;;;15.50;99.90;;;;;;5035284;28;20466;-68
2023/08/07 02:55:02;;;;;;;11.73;10.53;;;15.50;99.90;;;;;;5035492;28;20454;-68
2023/08/07 02:57:30;;;;;;;12.20;11.20;;;15.50;99.90;;;;;;5036876;28;20434;-68
2023/08/07 02:59:58;;;;;;;13.00;11.83;;;15.50;99.90;;;;;;5036460;28;21000;-68
2023/08/07 03:02:28;;;;;;;12.63;11.47;;;15.50;99.90;;;;;;5035125;28;20454;-68
2023/08/07 03:04:58;;;;;;;13.00;11.70;;;15.50;99.90;;;;;;5036440;28;20513;-68
2023/08/07 03:07:26;;;;;;;13.03;11.87;;;15.50;99.90;;;;;;5036442;28;20442;-68
2023/08/07 03:09:54;;;;;;;14.17;12.77;;;15.50;99.90;;;;;;5035157;28;20443;-69
2023/08/07 03:12:22;;;;;;;13.00;11.90;;;15.50;99.90;;;;;;5034892;28;20462;-68
2023/08/07 03:14:51;;;;;;;12.53;11.23;;;15.50;99.90;;;;;;5036537;28;20446;-68
2023/08/07 03:17:20;;;;;;;12.70;11.40;;;15.40;99.90;;;;;;5034883;28;21028;-68
2023/08/07 03:19:49;;;;;;;11.97;10.77;;;15.40;99.90;;;;;;5034910;28;20936;-68
2023/08/07 03:22:18;;;;;;;12.97;11.57;;;15.40;99.90;;;;;;5034782;28;20539;-68
2023/08/07 03:24:48;;;;;;;11.77;10.67;;;15.40;99.90;;;;;;5034815;28;20476;-68
2023/08/07 03:27:16;;;;;;;10.77;9.90;;;15.40;99.90;;;;;;5034812;28;20882;-68
2023/08/07 03:29:44;;;;;;;9.97;8.97;;;15.40;99.90;;;;;;5033404;28;20437;-69
2023/08/07 03:32:14;;;;;;;9.23;8.43;;;15.40;99.90;;;;;;5034585;28;20426;-69
2023/08/07 03:34:42;;;;;;;8.40;7.60;;;15.40;99.90;;;;;;5034913;28;20446;-68
2023/08/07 03:37:11;;;;;;;8.20;7.40;;;15.40;99.90;;;;;;5034660;28;20521;-68
2023/08/07 03:39:41;;;;;;;8.30;7.70;;;15.40;99.90;;;;;;5034582;28;20801;-69
2023/08/07 03:42:09;;;;;;;8.37;7.60;;;15.40;99.90;;;;;;5035883;28;20463;-69
2023/08/07 03:44:37;;;;;;;8.00;7.30;;;15.50;99.90;;;;;;5034458;28;20447;-69
2023/08/07 03:47:05;;;;;;;9.10;8.20;;;15.40;99.90;;;;;;5034464;28;20956;-69
2023/08/07 03:49:34;;;;;;;8.80;8.17;;;15.50;99.90;;;;;;5034273;28;20544;-69
2023/08/07 03:52:04;;;;;;;8.60;7.70;;;15.50;99.90;;;;;;5034313;28;20429;-69
2023/08/07 03:54:32;;;;;;;8.67;7.90;;;15.50;99.90;;;;;;5035512;28;20463;-69
2023/08/07 03:57:02;;;;;;;7.70;7.10;;;15.50;99.90;;;;;;5034039;28;20489;-69
2023/08/07 03:59:30;;;;;;;8.97;8.27;;;15.50;99.90;;;;;;5034186;28;20439;-69
2023/08/07 04:01:58;;;;;;;8.93;8.13;;;15.50;99.90;;;;;;5034211;28;20841;-69
2023/08/07 04:04:26;;;;;;;10.30;9.07;;;15.50;99.90;;;;;;5034060;28;20463;-69
2023/08/07 04:06:54;;;;;;;8.90;8.20;;;15.50;99.90;;;;;;5034065;28;20453;-69
2023/08/07 04:09:23;;;;;;;7.77;7.13;;;15.50;99.90;;;;;;5033984;28;20467;-69
2023/08/07 04:11:51;;;;;;;7.93;7.13;;;15.50;99.90;;;;;;5033899;28;20450;-68
2023/08/07 04:14:21;;;;;;;7.70;7.07;;;15.50;99.90;;;;;;5035615;28;20504;-69
2023/08/07 04:16:49;;;;;;;8.70;7.73;;;15.50;99.90;;;;;;5033862;28;20418;-69
2023/08/07 04:19:17;;;;;;;7.03;6.33;;;15.50;99.90;;;;;;5033835;28;20465;-69
2023/08/07 04:21:45;;;;;;;7.83;7.03;;;15.50;99.90;;;;;;5033710;28;20759;-69
2023/08/07 04:24:13;;;;;;;8.20;6.83;;;15.50;99.90;;;;;;5033745;28;20912;-68
2023/08/07 04:26:41;;;;;;;7.03;6.17;;;15.50;99.90;;;;;;5034890;28;20434;-69
2023/08/07 04:29:10;;;;;;;9.73;8.10;;;15.50;99.90;;;;;;5035098;28;20561;-69
2023/08/07 04:31:39;;;;;;;7.20;6.50;;;15.60;99.90;;;;;;5034834;28;20442;-69
2023/08/07 04:34:07;;;;;;;8.57;7.17;;;15.60;99.90;;;;;;5035713;28;20521;-68
2023/08/07 04:36:36;;;;;;;6.90;6.30;;;15.60;99.90;;;;;;5034796;28;20768;-69
2023/08/07 04:39:04;;;;;;;7.03;6.30;;;15.60;99.90;;;;;;5034420;28;20439;-68
2023/08/07 04:41:32;;;;;;;7.27;6.60;;;15.60;99.90;;;;;;5034856;28;20447;-69
2023/08/07 04:44:00;;;;;;;6.93;6.23;;;15.60;99.90;;;;;;5034571;28;20455;-69
2023/08/07 04:46:28;;;;;;;5.90;5.40;;;15.60;99.90;;;;;;5034546;28;20928;-68
2023/08/07 04:48:58;;;;;;;7.00;6.30;;;15.60;99.90;;;;;;5034441;28;21025;-69
2023/08/07 04:51:28;;;;;;;7.27;5.63;;;15.60;99.90;;;;;;5034403;28;20431;-69
2023/08/07 04:53:58;;;;;;;6.60;5.90;;;15.60;99.90;;;;;;5034313;28;20459;-69
2023/08/07 04:56:26;;;;;;;5.30;4.87;;;15.60;99.90;;;;;;5034609;28;20597;-69
2023/08/07 04:58:54;;;;;;;6.23;5.63;;;15.60;99.90;;;;;;5034851;28;20522;-69
2023/08/07 05:01:23;;;;;;;5.80;5.30;;;15.50;99.90;;;;;;5034259;28;20530;-68
2023/08/07 05:03:51;;;;;;;8.13;5.97;;;15.50;99.90;;;;;;5034142;28;20459;-68
2023/08/07 05:06:20;;;;;;;7.03;4.60;;;15.50;99.90;;;;;;5032928;28;20530;-69
2023/08/07 05:08:48;;;;;;;5.57;4.17;;;15.50;99.90;;;;;;5033996;28;20474;-69
2023/08/07 05:11:17;;;;;;;4.90;4.30;;;15.50;99.90;;;;;;5034128;28;20474;-69
2023/08/07 05:13:45;;;;;;;5.27;4.80;;;15.50;99.90;;;;;;5034220;28;20469;-69
2023/08/07 05:16:13;;;;;;;6.40;4.57;;;15.50;99.90;;;;;;5033975;28;20474;-69
2023/08/07 05:18:41;;;;;;;3.90;3.50;;;15.50;99.90;;;;;;5033923;28;20447;-69
2023/08/07 05:21:09;;;;;;;5.07;3.93;;;15.50;99.90;;;;;;5033967;28;20524;-69
2023/08/07 05:23:39;;;;;;;4.40;3.90;;;15.50;99.90;;;;;;5033870;28;20458;-69
2023/08/07 05:26:07;;;;;;;4.23;3.80;;;15.50;99.90;;;;;;5032516;28;21014;-69
2023/08/07 05:28:35;;;;;;;5.50;3.80;;;15.50;99.90;;;;;;5034021;28;20469;-68
2023/08/07 05:31:03;;;;;;;3.93;3.50;;;15.50;99.90;;;;;;5033980;28;20474;-68
2023/08/07 05:33:31;;;;;;;6.73;3.60;;;15.50;99.90;;;;;;5033832;28;20455;-68
2023/08/07 05:35:59;;;;;;;6.13;3.57;;;15.50;99.90;;;;;;5033715;28;20939;-68
2023/08/07 05:38:27;;;;;;;4.67;3.07;;;15.50;99.90;;;;;;5034153;28;20433;-69
2023/08/07 05:40:56;;;;;;;6.70;2.93;;;15.50;99.90;;;;;;5033905;28;20875;-68
2023/08/07 05:43:24;;;;;;;5.00;3.27;;;15.50;99.90;;;;;;5033525;28;20892;-69
2023/08/07 05:45:52;;;;;;;7.60;3.00;;;15.50;99.90;;;;;;5033512;28;20489;-68
2023/08/07 05:48:21;;;;;;;4.53;3.03;;;15.60;99.90;;;;;;5033739;28;20413;-68
2023/08/07 05:50:49;;;;;;;3.43;2.97;;;15.60;99.90;;;;;;5033307;28;20819;-68
2023/08/07 05:53:17;;;;;;;6.40;3.27;;;15.60;99.90;;;;;;5033046;28;20459;-68
2023/08/07 05:55:45;;;;;;;6.53;2.70;;;15.60;99.90;;;;;;5032172;28;20546;-68
2023/08/07 05:58:14;;;;;;;3.87;2.83;;;15.60;99.90;;;;;;5033916;28;20494;-68
2023/08/07 06:00:42;;;;;;;7.73;3.60;;;15.60;99.90;;;;;;5033489;28;20470;-68
2023/08/07 06:03:11;;;;;;;4.80;3.53;;;15.60;99.90;;;;;;5032088;28;20966;-68
2023/08/07 06:05:39;;;;;;;5.00;3.23;;;15.70;99.90;;;;;;5033382;28;20444;-68
2023/08/07 06:08:07;;;;;;;8.53;3.57;;;15.70;99.90;;;;;;5031956;28;20952;-69
2023/08/07 06:10:35;;;;;;;6.40;3.67;;;15.70;99.90;;;;;;5033412;28;20445;-68
2023/08/07 06:13:03;;;;;;;5.60;3.13;;;15.70;99.90;;;;;;5033262;28;20462;-69
2023/08/07 06:15:34;;;;;;;9.03;3.80;;;15.80;99.90;;;;;;5033276;28;21028;-68
2023/08/07 06:18:02;;;;;;;9.27;4.87;;;15.90;99.90;;;;;;5033419;28;20791;-69
2023/08/07 06:20:31;;;;;;;6.63;3.37;;;16.00;99.90;;;;;;5032145;28;21043;-69
2023/08/07 06:22:59;;;;;;;6.03;4.70;;;16.10;99.90;;;;;;5033135;28;20964;-68
2023/08/07 06:25:27;;;;;;;6.77;3.63;;;16.10;99.90;;;;;;5033197;28;20533;-68
2023/08/07 06:27:55;;;;;;;7.50;4.20;;;16.20;99.90;;;;;;5033720;28;20439;-68
2023/08/07 06:30:23;;;;;;;6.03;3.57;;;16.20;99.90;;;;;;5031819;28;20954;-68
2023/08/07 06:32:53;;;;;;;6.23;4.00;;;16.20;99.90;;;;;;5033509;28;20463;-68
2023/08/07 06:35:21;;;;;;;5.47;3.20;;;16.40;99.90;;;;;;5033206;28;20413;-68
2023/08/07 06:37:49;;;;;;;8.67;3.83;;;16.50;99.90;;;;;;5033138;28;20966;-68
2023/08/07 06:40:17;;;;;;;6.90;3.60;;;16.70;99.90;;;;;;5035783;28;20413;-69
2023/08/07 06:42:46;;;;;;;7.50;3.77;;;16.80;99.90;;;;;;5037892;28;20458;-69
2023/08/07 06:45:14;;;;;;;6.00;3.50;;;16.90;99.90;;;;;;5037945;28;20405;-69
2023/08/07 06:47:42;;;;;;;4.60;3.10;;;17.00;99.90;;;;;;5036658;28;20449;-69
2023/08/07 06:50:12;;;;;;;4.70;2.30;;;16.90;99.90;;;;;;5034648;28;20437;-69
2023/08/07 06:52:41;;;;;;;3.97;2.57;;;16.80;99.90;;;;;;5034323;28;20829;-69
2023/08/07 06:55:09;;;;;;;4.10;3.17;;;16.80;99.90;;;;;;5034265;28;20414;-69
2023/08/07 06:57:37;;;;;;;6.80;3.40;;;16.60;99.90;;;;;;5034513;28;20504;-69
2023/08/07 07:00:07;;;;;;;6.57;3.37;;;16.60;99.90;;;;;;5035381;28;20521;-68
2023/08/07 07:02:35;;;;;;;6.10;3.30;;;16.50;99.90;;;;;;5036662;28;20429;-69
2023/08/07 07:05:04;;;;;;;6.63;3.53;;;16.40;99.90;;;;;;5038617;28;20409;-69
2023/08/07 07:07:34;;;;;;;7.80;3.43;;;16.40;99.90;;;;;;5039351;28;20855;-69
2023/08/07 07:10:02;;;;;;;7.27;4.27;;;16.30;99.90;;;;;;5038725;28;20546;-69
2023/08/07 07:12:31;;;;;;;7.33;4.10;;;16.30;99.90;;;;;;5038651;28;20441;-69
2023/08/07 07:14:59;;;;;;;7.80;4.10;;;16.30;99.90;;;;;;5038845;28;20447;-69
2023/08/07 07:17:27;;;;;;;9.07;3.90;;;16.30;99.90;;;;;;5039458;28;20519;-70
2023/08/07 07:19:56;;;;;;;12.90;4.60;;;16.30;99.90;;;;;;5041157;28;20911;-69
2023/08/07 07:22:24;;;;;;;8.30;4.20;;;16.30;99.90;;;;;;5040222;28;20454;-69
2023/08/07 07:24:54;;;;;;;9.03;4.40;;;16.40;99.90;;;;;;5039272;28;20520;-69
2023/08/07 07:27:25;;;;;;;10.70;5.20;;;16.50;99.90;;;;;;5040363;28;20409;-69
2023/08/07 07:29:53;;;;;;;9.17;4.40;;;16.60;99.90;;;;;;5038540;28;20530;-69
2023/08/07 07:32:21;;;;;;;10.70;3.97;;;16.70;99.90;;;;;;5040700;28;20439;-69
2023/08/07 07:34:49;;;;;;;9.97;4.30;;;16.70;99.90;;;;;;5038980;28;20446;-69
2023/08/07 07:37:17;;;;;;;8.93;4.60;;;16.80;99.90;;;;;;5040237;28;20447;-69
2023/08/07 07:39:45;;;;;;;8.33;4.00;;;17.00;99.90;;;;;;5039498;28;20435;-69
2023/08/07 07:42:15;;;;;;;8.00;4.03;;;17.10;99.90;;;;;;5039956;28;20438;-69
2023/08/07 07:44:43;;;;;;;8.53;4.10;;;17.20;99.90;;;;;;5039128;28;20410;-69
2023/08/07 07:47:12;;;;;;;8.80;3.80;;;17.30;99.90;;;;;;5037320;28;20580;-69
2023/08/07 07:49:47;;;;;;;7.30;4.00;;;17.40;99.90;;;;;;5037705;28;20437;-69
2023/08/07 07:52:15;;;;;;;9.00;4.80;;;17.50;99.90;;;;;;5038309;28;20440;-69
2023/08/07 07:54:43;;;;;;;12.00;4.27;;;17.60;99.90;;;;;;5037027;28;20413;-69
2023/08/07 07:57:11;;;;;;;7.80;3.80;;;17.70;99.90;;;;;;5039154;28;20422;-69
2023/08/07 07:59:41;;;;;;;9.50;4.70;;;17.70;99.90;;;;;;5038233;28;20461;-69
2023/08/07 08:02:09;;;;;;;11.67;4.80;;;17.80;99.90;;;;;;5036782;28;20433;-69
2023/08/07 08:04:37;;;;;;;9.03;5.00;;;17.80;99.90;;;;;;5037129;28;20936;-69
2023/08/07 08:07:06;;;;;;;10.53;4.20;;;17.70;99.90;;;;;;5035891;28;20475;-69
2023/08/07 08:09:35;;;;;;;7.90;4.23;;;17.70;99.90;;;;;;5036440;28;20773;-69
2023/08/07 08:12:03;;;;;;;11.17;4.00;;;17.60;99.90;;;;;;5036110;28;20577;-69
2023/08/07 08:14:31;;;;;;;8.87;4.40;;;17.50;99.90;;;;;;5038174;28;20438;-69
2023/08/07 08:17:19;;;;;;;9.00;4.20;;;17.60;99.90;;;;;;5040587;28;20421;-69
2023/08/07 08:19:47;;;;;;;11.63;4.40;;;17.60;99.90;;;;;;5040001;28;20422;-69
2023/08/07 08:22:18;;;;;;;7.33;3.57;;;17.60;99.90;;;;;;5040882;28;20401;-70
2023/08/07 08:24:47;;;;;;;6.80;3.63;;;17.70;99.90;;;;;;5040023;28;20454;-69
2023/08/07 08:27:17;;;;;;;9.73;3.90;;;17.80;99.90;;;;;;5039506;28;20508;-70
2023/08/07 08:29:45;;;;;;;10.13;3.83;;;17.90;99.90;;;;;;5041165;28;20431;-70
2023/08/07 08:32:14;;;;;;;12.50;4.97;;;17.90;99.90;;;;;;5040238;28;20441;-69
2023/08/07 08:34:43;;;;;;;8.30;3.30;;;17.90;99.90;;;;;;5039801;28;20414;-69
2023/08/07 08:37:11;;;;;;;6.70;3.50;;;17.90;99.90;;;;;;5040339;28;20465;-70
2023/08/07 08:39:39;;;;;;;9.93;3.97;;;17.80;99.90;;;;;;5040695;28;20441;-70
2023/08/07 08:42:11;;;;;;;9.77;3.83;;;17.80;99.90;;;;;;5040118;28;20475;-70
2023/08/07 08:44:41;;;;;;;9.80;3.73;;;17.70;99.90;;;;;;5038751;28;20466;-71
2023/08/07 08:47:10;;;;;;;9.60;3.40;;;17.70;99.90;;;;;;5039536;28;20414;-70
2023/08/07 08:49:47;;;;;;;5.47;2.77;;;17.70;99.90;;;;;;5040323;28;20518;-69
2023/08/07 08:52:15;;;;;;;8.70;3.27;;;17.80;99.90;;;;;;5040046;28;20465;-69
2023/08/07 08:54:45;;;;;;;7.20;2.83;;;17.80;99.90;;;;;;5039377;28;20530;-69
2023/08/07 08:57:14;;;;;;;6.43;3.00;;;17.90;99.90;;;;;;5040428;28;20413;-69
2023/08/07 08:59:43;;;;;;;6.47;3.20;;;18.00;99.90;;;;;;5039230;28;20449;-69
2023/08/07 09:02:11;;;;;;;7.53;2.90;;;18.10;99.90;;;;;;5038744;28;20449;-70
2023/08/07 09:04:42;;;;;;;8.40;3.13;;;18.20;99.90;;;;;;5040740;28;20518;-69
2023/08/07 09:07:14;;;;;;;7.77;2.77;;;18.20;99.90;;;;;;5039345;28;20497;-70
2023/08/07 09:09:44;;;;;;;7.17;3.57;;;18.30;99.90;;;;;;5039723;28;20438;-70
2023/08/07 09:12:20;;;;;;;7.23;3.10;;;18.30;99.90;;;;;;5040391;28;20457;-70
2023/08/07 09:14:53;;;;;;;6.67;3.13;;;18.30;99.90;;;;;;5040653;28;20414;-70
2023/08/07 09:17:24;;;;;;;6.83;2.77;;;18.20;99.90;;;;;;5040392;28;20495;-69
2023/08/07 09:19:53;;;;;;;10.77;4.40;;;17.90;99.90;;;;;;5038550;28;20467;-69
2023/08/07 09:22:23;;;;;;;9.30;3.93;;;17.80;99.90;;;;;;5039376;28;20468;-69
2023/08/07 09:24:52;;;;;;;7.67;3.90;;;17.50;99.90;;;;;;5039942;28;20439;-69
2023/08/07 09:27:21;;;;;;;8.23;4.57;;;17.40;99.90;;;;;;5038786;28;20853;-69
2023/08/07 09:29:49;;;;;;;6.13;3.40;;;17.30;99.90;;;;;;5036337;28;20447;-69
2023/08/07 09:32:18;;;;;;;10.17;3.80;;;17.20;99.90;;;;;;5038371;28;20467;-70
2023/08/07 09:34:47;;;;;;;7.17;3.90;;;17.30;99.90;;;;;;5038009;28;20496;-70
2023/08/07 09:37:15;;;;;;;7.20;3.33;;;17.30;99.90;;;;;;5037469;28;20474;-69
2023/08/07 09:39:45;;;;;;;6.37;3.70;;;17.40;99.90;;;;;;5036335;28;20799;-69
2023/08/07 09:42:15;;;;;;;11.67;4.00;;;17.50;99.90;;;;;;5033514;28;20446;-69
2023/08/07 09:44:44;;;;;;;7.70;3.70;;;17.60;99.90;;;;;;5036000;28;20438;-69
2023/08/07 09:47:14;;;;;;;7.40;3.27;;;17.70;99.90;;;;;;5035005;28;20417;-69
2023/08/07 09:49:43;;;;;;;9.83;3.77;;;17.80;99.90;;;;;;5035025;28;20439;-69
2023/08/07 09:52:13;;;;;;;7.23;3.17;;;17.90;99.90;;;;;;5035878;28;20448;-70
2023/08/07 09:54:41;;;;;;;9.10;3.60;;;18.00;99.90;;;;;;5039635;28;20454;-69
2023/08/07 09:57:10;;;;;;;5.87;3.43;;;18.00;99.90;;;;;;5035993;28;20963;-69
2023/08/07 09:59:38;;;;;;;9.63;3.63;;;17.90;99.90;;;;;;5037638;28;20438;-69
2023/08/07 10:02:08;;;;;;;8.90;4.13;;;17.90;99.90;;;;;;5037364;28;20424;-69
2023/08/07 10:04:37;;;;;;;9.07;3.33;;;17.90;99.90;;;;;;5038130;28;20439;-69
2023/08/07 10:07:05;;;;;;;4.50;2.20;;;17.80;99.90;;;;;;5037027;28;20534;-69
2023/08/07 10:09:33;;;;;;;6.07;3.17;;;17.70;99.90;;;;;;5035281;28;20508;-69
2023/08/07 10:12:03;;;;;;;7.10;3.20;;;17.50;99.90;;;;;;5035584;28;20449;-69
2023/08/07 10:14:32;;;;;;;6.57;3.27;;;17.40;99.90;;;;;;5033805;28;20533;-69
2023/08/07 10:17:00;;;;;;;6.43;3.20;;;17.40;99.90;;;;;;5035201;28;20537;-69
2023/08/07 10:19:28;;;;;;;7.70;3.37;;;17.30;99.90;;;;;;5034250;28;20417;-69
2023/08/07 10:21:57;;;;;;;5.93;3.03;;;17.30;99.90;;;;;;5033802;28;20420;-69
2023/08/07 10:24:26;;;;;;;8.87;2.80;;;17.40;99.90;;;;;;5035170;28;20461;-69
2023/08/07 10:26:56;;;;;;;6.23;2.90;;;17.50;99.90;;;;;;5034541;28;20457;-69
2023/08/07 10:29:26;;;;;;;6.10;3.10;;;17.60;99.90;;;;;;5034665;28;20834;-69
2023/08/07 10:31:58;;;;;;;5.80;3.10;;;17.60;99.90;;;;;;5034876;28;20562;-69
2023/08/07 10:34:30;;;;;;;7.00;2.80;;;17.60;99.90;;;;;;5034974;28;20466;-68
2023/08/07 10:36:58;;;;;;;3.03;2.17;;;17.60;99.90;;;;;;5033201;28;20413;-69
2023/08/07 10:39:26;;;;;;;4.00;2.20;;;17.60;99.90;;;;;;5037668;28;20474;-69
2023/08/07 10:41:55;;;;;;;5.70;3.53;;;17.40;99.90;;;;;;5038177;28;20805;-69
2023/08/07 10:44:25;;;;;;;5.73;2.60;;;17.30;99.90;;;;;;5036445;28;20459;-69
2023/08/07 10:46:54;;;;;;;6.53;3.40;;;17.10;99.90;;;;;;5037311;28;20446;-69
2023/08/07 10:49:35;;;;;;;7.20;3.23;;;16.90;99.90;;;;;;5036916;28;20899;-69
2023/08/07 10:52:05;;;;;;;6.33;3.30;;;16.80;99.90;;;;;;5037689;28;20973;-69
2023/08/07 10:54:42;;;;;;;6.00;2.90;;;16.70;99.90;;;;;;5037109;28;20780;-69
2023/08/07 10:57:14;;;;;;;7.10;4.10;;;16.60;99.90;;;;;;5037474;28;20400;-69
2023/08/07 10:59:50;;;;;;;4.73;2.50;;;16.50;99.90;;;;;;5037047;28;20438;-69
2023/08/07 11:02:25;;;;;;;5.30;2.63;;;16.40;99.90;;;;;;5037014;28;20419;-69
2023/08/07 11:04:55;;;;;;;6.53;3.40;;;16.30;99.90;;;;;;5037197;28;20389;-69
2023/08/07 11:07:28;;;;;;;5.20;3.00;;;16.30;99.90;;;;;;5036923;28;20413;-69
2023/08/07 11:09:57;;;;;;;8.17;3.13;;;16.30;99.90;;;;;;5036641;28;20476;-69
2023/08/07 11:12:26;;;;;;;7.87;3.30;;;16.30;99.90;;;;;;5036613;28;20496;-70
2023/08/07 11:14:56;;;;;;;7.47;3.00;;;16.40;99.90;;;;;;5036558;28;20774;-69
2023/08/07 11:17:25;;;;;;;10.47;3.70;;;16.50;99.90;;;;;;5035207;28;20438;-69
2023/08/07 11:19:56;;;;;;;7.73;3.87;;;16.60;99.90;;;;;;5036499;28;20889;-69
2023/08/07 11:22:24;;;;;;;8.70;4.20;;;16.70;99.90;;;;;;5036218;28;20907;-69
2023/08/07 11:24:53;;;;;;;11.50;3.87;;;16.80;99.90;;;;;;5036451;28;20435;-70
2023/08/07 11:27:22;;;;;;;6.03;3.63;;;16.90;99.90;;;;;;5036374;28;20843;-69
2023/08/07 11:29:50;;;;;;;6.97;3.70;;;17.00;99.90;;;;;;5035103;28;20409;-70
2023/08/07 11:32:21;;;;;;;8.80;4.40;;;17.10;99.90;;;;;;5036260;28;20473;-70
2023/08/07 11:34:51;;;;;;;7.13;3.90;;;17.10;99.90;;;;;;5035376;28;20438;-70
2023/08/07 11:37:20;;;;;;;7.30;3.90;;;17.20;99.90;;;;;;5036237;28;20505;-69
2023/08/07 11:39:49;;;;;;;8.10;4.00;;;17.20;99.90;;;;;;5036500;28;20969;-70
2023/08/07 11:42:17;;;;;;;5.27;3.40;;;17.20;99.90;;;;;;5034623;28;20884;-70
2023/08/07 11:44:46;;;;;;;8.53;4.30;;;17.20;99.90;;;;;;5036315;28;20763;-70
2023/08/07 11:47:16;;;;;;;8.50;3.87;;;17.30;99.90;;;;;;5035959;28;20414;-70
2023/08/07 11:49:44;;;;;;;4.90;2.87;;;17.30;99.90;;;;;;5035542;28;20466;-70
2023/08/07 11:52:13;;;;;;;7.00;3.10;;;17.40;99.90;;;;;;5034525;28;20493;-70
2023/08/07 11:54:43;;;;;;;9.00;4.43;;;17.50;99.90;;;;;;5036123;28;20435;-69
2023/08/07 11:57:17;;;;;;;11.10;3.63;;;17.60;99.90;;;;;;5035842;28;20522;-70
2023/08/07 11:59:50;;;;;;;6.40;3.50;;;17.70;99.90;;;;;;5035884;28;20429;-70
2023/08/07 12:02:24;;;;;;;5.80;3.20;;;17.80;99.90;;;;;;5036022;28;20511;-69
2023/08/07 12:04:58;;;;;;;6.97;3.90;;;17.90;99.90;;;;;;5036022;28;20809;-70
2023/08/07 12:07:28;;;;;;;5.73;3.50;;;17.90;99.90;;;;;;5035808;28;20423;-70
2023/08/07 12:10:04;;;;;;;7.20;3.10;;;18.00;99.90;;;;;;5036130;28;20423;-70
2023/08/07 12:12:34;;;;;;;6.73;3.40;;;18.10;99.90;;;;;;5035286;28;20473;-69
2023/08/07 12:15:04;;;;;;;7.57;3.57;;;18.10;99.90;;;;;;5036326;28;20821;-70
2023/08/07 12:17:33;;;;;;;5.17;2.70;;;18.10;99.90;;;;;;5035942;28;20508;-69
2023/08/07 12:20:01;;;;;;;7.30;3.30;;;18.10;99.90;;;;;;5035418;28;20445;-69
2023/08/07 12:22:29;;;;;;;7.67;3.43;;;18.10;99.90;;;;;;5033871;28;20535;-69
2023/08/07 12:24:57;;;;;;;6.93;2.70;;;18.10;99.90;;;;;;5035340;28;20443;-70
2023/08/07 12:27:27;;;;;;;7.00;2.93;;;18.10;99.90;;;;;;5033973;28;20479;-69
2023/08/07 12:29:55;;;;;;;5.50;2.40;;;18.10;99.90;;;;;;5035408;28;20842;-69
2023/08/07 12:32:23;;;;;;;5.10;2.70;;;18.00;99.90;;;;;;5035107;28;20424;-69
2023/08/07 12:34:52;;;;;;;4.40;2.37;;;18.00;99.90;;;;;;5034987;28;20453;-69
2023/08/07 12:37:23;;;;;;;4.77;2.60;;;18.00;99.90;;;;;;5034134;28;20489;-69
2023/08/07 12:39:51;;;;;;;5.43;2.53;;;18.00;99.90;;;;;;5035129;28;20560;-69
2023/08/07 12:42:22;;;;;;;6.03;2.17;;;18.00;99.90;;;;;;5033764;28;20522;-69
2023/08/07 12:44:53;;;;;;;4.17;2.20;;;18.00;99.90;;;;;;5035497;28;20925;-69
2023/08/07 12:47:21;;;;;;;4.90;2.73;;;17.90;99.90;;;;;;5034936;28;20433;-69
2023/08/07 12:49:50;;;;;;;4.70;2.70;;;17.90;99.90;;;;;;5034741;28;20440;-69
2023/08/07 12:52:18;;;;;;;5.67;2.47;;;17.90;99.90;;;;;;5034988;28;20521;-70